Time;durP1;ratioP1;P1;durP2;ratioP2;P2;SDS_P1;SDS_P2;PMS_P1;PMS_P2;Temp;Humidity;BMP_temperature;BMP_pressure;BME280_temperature;BME280_humidity;BME280_pressure;Samples;Min_cycle;Max_cycle;Signal;HPM_P1;HPM_P2
2022/01/17 00:01:04;;;;;;;7.53;6.17;;;-0.90;99.90;;;;;;5039946;28;20449;-58
2022/01/17 00:03:31;;;;;;;7.53;5.87;;;-0.80;99.90;;;;;;5025859;28;20479;-57
2022/01/17 00:05:58;;;;;;;6.60;6.00;;;-0.60;99.90;;;;;;5026414;28;20520;-58
2022/01/17 00:08:25;;;;;;;7.13;5.80;;;-0.60;99.90;;;;;;5029166;28;20507;-56
2022/01/17 00:10:52;;;;;;;7.23;5.53;;;-0.50;99.90;;;;;;5034777;28;20478;-59
2022/01/17 00:13:26;;;;;;;8.20;7.23;;;-0.30;99.90;;;;;;5027577;28;20477;-56
2022/01/17 00:15:57;;;;;;;9.73;8.73;;;-0.30;99.90;;;;;;5028924;28;20481;-56
2022/01/17 00:18:52;;;;;;;8.30;6.43;;;-0.20;99.90;;;;;;5036888;28;20560;-58
2022/01/17 00:21:17;;;;;;;5.57;5.07;;;-0.10;99.90;;;;;;5027164;28;20849;-56
2022/01/17 00:23:45;;;;;;;7.90;5.93;;;0.00;99.90;;;;;;5029123;28;20497;-56
2022/01/17 00:26:12;;;;;;;7.90;7.10;;;0.00;99.90;;;;;;5038577;28;20519;-58
2022/01/17 00:28:40;;;;;;;4.43;4.00;;;0.10;99.90;;;;;;5026446;28;21040;-59
2022/01/17 00:31:08;;;;;;;7.20;5.97;;;0.10;99.90;;;;;;5028604;28;20470;-59
2022/01/17 00:33:36;;;;;;;6.80;5.73;;;0.10;99.90;;;;;;5034787;28;20890;-57
2022/01/17 00:36:03;;;;;;;6.63;5.93;;;0.20;99.90;;;;;;5037216;28;20476;-56
2022/01/17 00:38:30;;;;;;;8.07;5.70;;;-0.10;99.90;;;;;;5032897;28;20495;-56
2022/01/17 00:40:57;;;;;;;6.47;5.17;;;-0.40;99.90;;;;;;5030995;28;20495;-60
2022/01/17 00:43:25;;;;;;;14.07;6.27;;;-0.60;99.90;;;;;;5031731;28;20468;-56
2022/01/17 00:45:53;;;;;;;8.23;5.07;;;-0.60;99.90;;;;;;5075278;22;21030;-77
2022/01/17 00:48:20;;;;;;;5.13;4.00;;;-0.40;99.90;;;;;;5048804;28;20477;-77
2022/01/17 00:50:47;;;;;;;7.57;5.23;;;-0.30;99.90;;;;;;5050803;28;20852;-77
2022/01/17 00:53:14;;;;;;;4.00;3.70;;;-0.20;99.90;;;;;;5044614;28;20504;-77
2022/01/17 00:55:41;;;;;;;4.83;3.80;;;-0.20;99.90;;;;;;5048060;28;20498;-77
2022/01/17 00:58:08;;;;;;;3.97;3.67;;;-0.10;99.90;;;;;;5072250;22;20518;-52
2022/01/17 01:00:36;;;;;;;3.93;3.50;;;-0.10;99.90;;;;;;5056236;28;20480;-52
2022/01/17 01:03:05;;;;;;;4.40;4.00;;;0.10;99.90;;;;;;5055411;28;20472;-51
2022/01/17 01:05:32;;;;;;;4.93;4.50;;;0.10;99.90;;;;;;5053396;28;20490;-51
2022/01/17 01:07:59;;;;;;;5.23;4.53;;;0.20;99.90;;;;;;5051248;28;20523;-51
2022/01/17 01:10:26;;;;;;;5.27;4.40;;;0.20;99.90;;;;;;5049557;28;20524;-52
2022/01/17 01:12:54;;;;;;;5.67;3.93;;;0.20;99.90;;;;;;5052477;28;20482;-53
2022/01/17 01:15:34;;;;;;;4.77;4.30;;;0.30;99.90;;;;;;5054410;28;20519;-52
2022/01/17 01:18:12;;;;;;;5.10;4.33;;;0.00;99.90;;;;;;5052338;28;20466;-53
2022/01/17 01:21:04;;;;;;;3.50;3.20;;;-0.20;99.90;;;;;;5056851;28;20539;-54
2022/01/17 01:29:11;;;;;;;3.43;3.13;;;0.20;99.90;;;;;;4985129;28;20432;-53
2022/01/17 01:31:44;;;;;;;4.90;3.80;;;0.30;99.90;;;;;;5026891;28;22230;-51
2022/01/17 01:34:12;;;;;;;4.73;3.40;;;0.30;99.90;;;;;;5048163;28;20495;-54
2022/01/17 01:36:42;;;;;;;5.20;3.37;;;0.20;99.90;;;;;;5048407;28;20481;-50
2022/01/17 01:39:10;;;;;;;3.57;3.27;;;0.00;99.90;;;;;;5059799;28;20449;-51
2022/01/17 01:41:42;;;;;;;3.70;3.30;;;0.10;99.90;;;;;;5053369;28;20495;-50
2022/01/17 01:44:13;;;;;;;5.27;3.13;;;0.10;99.90;;;;;;5049202;28;20477;-51
2022/01/17 01:46:40;;;;;;;5.73;4.07;;;0.30;99.90;;;;;;5051596;28;20476;-52
2022/01/17 01:49:07;;;;;;;68.67;40.80;;;0.40;99.90;;;;;;5055524;28;20939;-52
2022/01/17 01:51:34;;;;;;;10.10;7.60;;;0.40;99.90;;;;;;5048927;28;20456;-51
2022/01/17 01:54:03;;;;;;;9.83;6.90;;;0.50;99.90;;;;;;5049913;28;20477;-53
2022/01/17 01:56:30;;;;;;;7.97;6.27;;;0.50;99.90;;;;;;5062982;28;20449;-52
2022/01/17 01:58:58;;;;;;;8.00;5.33;;;0.50;99.90;;;;;;5050431;28;20471;-51
2022/01/17 02:01:25;;;;;;;4.77;4.27;;;0.40;99.90;;;;;;5048680;28;20483;-51
2022/01/17 02:03:52;;;;;;;4.97;4.50;;;0.10;99.90;;;;;;5046617;28;20550;-52
2022/01/17 02:06:18;;;;;;;3.60;3.30;;;0.00;99.90;;;;;;5044112;28;20473;-53
2022/01/17 02:08:45;;;;;;;3.70;3.40;;;0.20;99.90;;;;;;5047691;28;21954;-50
2022/01/17 02:11:14;;;;;;;4.37;3.90;;;0.30;99.90;;;;;;5054384;28;20812;-52
2022/01/17 02:13:41;;;;;;;3.50;3.20;;;0.40;99.90;;;;;;5047084;28;20512;-51
2022/01/17 02:16:13;;;;;;;3.43;3.13;;;0.30;99.90;;;;;;5044384;28;20498;-51
2022/01/17 02:18:42;;;;;;;3.67;2.80;;;0.40;99.90;;;;;;5047188;28;21033;-51
2022/01/17 02:21:18;;;;;;;4.70;4.20;;;0.40;99.90;;;;;;5057973;28;20929;-51
2022/01/17 02:23:47;;;;;;;4.30;3.40;;;0.50;99.90;;;;;;5059205;28;21016;-51
2022/01/17 02:26:15;;;;;;;6.20;4.47;;;0.50;99.90;;;;;;5050767;28;20500;-51
2022/01/17 02:28:45;;;;;;;5.27;4.50;;;0.60;99.90;;;;;;5058428;28;20569;-53
2022/01/17 02:31:12;;;;;;;3.83;3.53;;;0.60;99.90;;;;;;5055944;28;20715;-51
2022/01/17 02:33:39;;;;;;;4.80;3.47;;;0.40;99.90;;;;;;5050090;28;20488;-51
2022/01/17 02:36:07;;;;;;;4.40;4.00;;;0.30;99.90;;;;;;5052812;28;20524;-53
2022/01/17 02:38:35;;;;;;;6.57;4.60;;;0.40;99.90;;;;;;5062613;28;20470;-50
2022/01/17 02:41:02;;;;;;;4.00;3.33;;;0.40;99.90;;;;;;5053751;28;20909;-52
2022/01/17 02:43:31;;;;;;;6.07;3.97;;;-0.10;99.90;;;;;;5053329;28;20480;-51
2022/01/17 02:48:43;;;;;;;7.80;6.00;;;0.00;99.90;;;;;;5050867;28;20482;-51
2022/01/17 02:51:11;;;;;;;8.60;6.50;;;0.20;99.90;;;;;;5054006;28;20479;-52
2022/01/17 02:53:41;;;;;;;4.60;3.63;;;0.20;99.90;;;;;;5056011;28;20461;-51
2022/01/17 02:56:09;;;;;;;3.70;3.40;;;0.30;99.90;;;;;;5055387;28;20504;-50
2022/01/17 02:58:36;;;;;;;4.07;3.67;;;0.40;99.90;;;;;;5057045;28;20491;-53
2022/01/17 03:01:06;;;;;;;3.90;3.50;;;0.40;99.90;;;;;;5053282;28;20473;-51
2022/01/17 03:03:34;;;;;;;9.13;6.47;;;0.50;99.90;;;;;;5056436;28;21009;-51
2022/01/17 03:06:02;;;;;;;6.97;4.63;;;0.50;99.90;;;;;;5060066;28;20549;-51
2022/01/17 03:08:31;;;;;;;6.83;4.50;;;0.50;99.90;;;;;;5048493;28;20568;-52
2022/01/17 03:11:02;;;;;;;4.40;3.97;;;-0.10;99.90;;;;;;5051692;28;20477;-51
2022/01/17 03:13:32;;;;;;;5.30;4.00;;;-0.30;99.90;;;;;;5053433;28;20526;-51
2022/01/17 03:16:00;;;;;;;9.00;8.10;;;-0.30;99.90;;;;;;5052777;28;20462;-51
2022/01/17 03:18:29;;;;;;;6.00;5.40;;;-0.10;99.90;;;;;;5049039;28;20459;-51
2022/01/17 03:20:56;;;;;;;7.93;7.23;;;0.00;99.90;;;;;;5053419;28;20492;-50
2022/01/17 03:23:24;;;;;;;5.47;5.07;;;0.00;99.90;;;;;;5056089;28;20483;-51
2022/01/17 03:25:51;;;;;;;4.30;4.00;;;0.10;99.90;;;;;;5052639;28;20551;-51
2022/01/17 03:28:19;;;;;;;4.70;4.20;;;0.00;99.90;;;;;;5056943;28;20943;-48
2022/01/17 03:30:46;;;;;;;4.97;4.33;;;0.10;99.90;;;;;;5051771;28;20471;-47
2022/01/17 03:33:16;;;;;;;4.17;3.70;;;0.00;99.90;;;;;;5054221;28;20466;-51
2022/01/17 03:35:44;;;;;;;5.10;4.43;;;0.10;99.90;;;;;;5051546;28;20981;-51
2022/01/17 03:38:14;;;;;;;4.37;4.00;;;0.20;99.90;;;;;;5050091;28;20450;-51
2022/01/17 03:40:41;;;;;;;4.20;3.90;;;0.30;99.90;;;;;;5057999;28;20479;-51
2022/01/17 03:43:09;;;;;;;4.40;4.10;;;0.10;99.90;;;;;;5050962;28;20522;-51
2022/01/17 03:45:37;;;;;;;4.10;3.70;;;0.10;99.90;;;;;;5051765;28;20505;-51
2022/01/17 03:48:05;;;;;;;4.73;4.10;;;0.20;99.90;;;;;;5057570;28;20519;-50
2022/01/17 03:50:32;;;;;;;4.57;4.17;;;0.30;99.90;;;;;;5048285;28;20553;-51
2022/01/17 03:52:59;;;;;;;4.17;3.60;;;0.30;99.90;;;;;;5047945;28;20485;-53
2022/01/17 03:55:27;;;;;;;6.20;4.87;;;0.30;99.90;;;;;;5062319;28;21003;-51
2022/01/17 03:57:54;;;;;;;5.13;4.63;;;0.30;99.90;;;;;;5050466;28;20484;-51
2022/01/17 04:00:23;;;;;;;4.53;3.90;;;0.30;99.90;;;;;;5052199;28;20553;-53
2022/01/17 04:02:52;;;;;;;4.73;4.17;;;0.30;99.90;;;;;;5066279;28;20473;-49
2022/01/17 04:05:20;;;;;;;4.10;3.80;;;0.30;99.90;;;;;;5056126;28;21024;-51
2022/01/17 04:07:47;;;;;;;5.07;4.17;;;0.40;99.90;;;;;;5055035;28;20515;-53
2022/01/17 04:10:15;;;;;;;4.40;4.10;;;-0.30;99.90;;;;;;5054495;28;20473;-52
2022/01/17 04:12:43;;;;;;;4.80;4.40;;;-0.40;99.90;;;;;;5047306;28;20482;-51
2022/01/17 04:15:11;;;;;;;5.50;5.10;;;-0.20;99.90;;;;;;5046728;28;20498;-52
2022/01/17 04:17:40;;;;;;;44.83;33.00;;;0.00;99.90;;;;;;5046838;28;20475;-51
2022/01/17 04:20:13;;;;;;;13.90;11.43;;;0.10;99.90;;;;;;5050107;28;20528;-51
2022/01/17 04:22:45;;;;;;;5.23;4.83;;;0.10;99.90;;;;;;5059757;28;20572;-53
2022/01/17 04:25:12;;;;;;;4.87;3.90;;;-0.10;99.90;;;;;;5050478;28;20480;-52
2022/01/17 04:27:39;;;;;;;5.60;4.70;;;-0.20;99.90;;;;;;5045705;28;20787;-52
2022/01/17 04:30:08;;;;;;;5.73;4.60;;;-0.10;99.90;;;;;;5064575;28;20981;-51
2022/01/17 04:32:35;;;;;;;5.90;4.00;;;0.00;99.90;;;;;;5052127;28;20501;-53
2022/01/17 04:35:02;;;;;;;3.40;3.10;;;-0.10;99.90;;;;;;5056811;28;20906;-51
2022/01/17 04:37:30;;;;;;;3.90;3.30;;;-0.30;99.90;;;;;;5047032;28;20502;-52
2022/01/17 04:39:57;;;;;;;4.03;3.60;;;-0.40;99.90;;;;;;5054962;28;20513;-52
2022/01/17 04:42:27;;;;;;;6.03;4.53;;;-0.20;99.90;;;;;;5055626;28;20942;-51
2022/01/17 04:45:11;;;;;;;6.63;4.77;;;-0.10;99.90;;;;;;5047464;28;20531;-51
2022/01/17 04:47:40;;;;;;;5.10;4.43;;;0.00;99.90;;;;;;5060452;28;21011;-52
2022/01/17 04:50:09;;;;;;;7.23;4.83;;;0.10;99.90;;;;;;5055273;28;20529;-52
2022/01/17 04:52:37;;;;;;;7.43;4.20;;;0.20;99.90;;;;;;5053442;28;20480;-51
2022/01/17 04:55:06;;;;;;;4.00;3.70;;;0.30;99.90;;;;;;5056951;28;20816;-51
2022/01/17 04:57:33;;;;;;;4.23;3.60;;;0.30;99.90;;;;;;5059537;28;20495;-54
2022/01/17 05:00:00;;;;;;;4.10;3.80;;;0.00;99.90;;;;;;5054108;28;20473;-52
2022/01/17 05:02:28;;;;;;;6.00;4.60;;;0.00;99.90;;;;;;5057732;28;20496;-51
2022/01/17 05:04:55;;;;;;;5.20;4.80;;;0.10;99.90;;;;;;5063150;28;20458;-51
2022/01/17 05:07:22;;;;;;;9.30;8.37;;;0.20;99.90;;;;;;5050495;28;20490;-53
2022/01/17 05:09:50;;;;;;;4.70;4.30;;;0.30;99.90;;;;;;5059488;28;20489;-51
2022/01/17 05:12:17;;;;;;;5.97;4.30;;;0.10;99.90;;;;;;5059879;28;20483;-53
2022/01/17 05:14:48;;;;;;;4.77;4.00;;;0.00;99.90;;;;;;5052597;28;21010;-51
2022/01/17 05:20:00;;;;;;;27.87;24.90;;;0.10;99.90;;;;;;5045449;28;21010;-51
2022/01/17 05:22:31;;;;;;;12.00;10.17;;;0.20;99.90;;;;;;5048338;28;20456;-51
2022/01/17 05:24:59;;;;;;;5.97;5.47;;;0.30;99.90;;;;;;5053052;28;20561;-50
2022/01/17 05:27:26;;;;;;;10.13;7.70;;;0.40;99.90;;;;;;5054398;28;20847;-53
2022/01/17 05:29:53;;;;;;;7.03;5.40;;;0.40;99.90;;;;;;5057027;28;20472;-53
2022/01/17 05:32:21;;;;;;;7.63;5.43;;;0.30;99.90;;;;;;5048714;28;20820;-52
2022/01/17 05:34:48;;;;;;;5.10;4.60;;;0.20;99.90;;;;;;5049959;28;20463;-52
2022/01/17 05:37:15;;;;;;;10.00;9.00;;;0.10;99.90;;;;;;5048600;28;20486;-52
2022/01/17 05:39:43;;;;;;;8.73;7.93;;;0.20;99.90;;;;;;5059335;28;20485;-51
2022/01/17 05:42:17;;;;;;;6.87;6.00;;;0.30;99.90;;;;;;5050392;28;20447;-53
2022/01/17 05:44:44;;;;;;;5.53;5.03;;;0.40;99.90;;;;;;5059515;28;20467;-52
2022/01/17 05:47:11;;;;;;;5.17;4.70;;;0.10;99.90;;;;;;5052896;28;20564;-51
2022/01/17 05:49:38;;;;;;;5.80;5.20;;;0.00;99.90;;;;;;5051255;28;20622;-53
2022/01/17 05:52:06;;;;;;;5.57;5.07;;;0.10;99.90;;;;;;5057489;28;20477;-51
2022/01/17 05:54:33;;;;;;;7.17;5.30;;;0.20;99.90;;;;;;5058101;28;20495;-52
2022/01/17 05:56:59;;;;;;;6.40;5.90;;;0.20;99.90;;;;;;5051233;28;20486;-51
2022/01/17 05:59:28;;;;;;;9.97;7.03;;;0.20;99.90;;;;;;5050740;28;20672;-51
2022/01/17 06:01:55;;;;;;;6.40;5.80;;;0.30;99.90;;;;;;5058871;28;20481;-52
2022/01/17 06:04:22;;;;;;;4.77;4.27;;;0.40;99.90;;;;;;5048346;28;20499;-51
2022/01/17 06:06:49;;;;;;;8.40;6.00;;;0.40;99.90;;;;;;5046070;28;20477;-53
2022/01/17 06:09:17;;;;;;;15.70;10.50;;;0.50;99.90;;;;;;5043901;28;20521;-51
2022/01/17 06:11:44;;;;;;;5.53;5.03;;;0.50;99.90;;;;;;5052464;28;20476;-53
2022/01/17 06:14:15;;;;;;;5.33;4.53;;;0.40;99.90;;;;;;5047746;28;20570;-52
2022/01/17 06:16:45;;;;;;;7.00;5.47;;;0.20;99.90;;;;;;5043009;28;20476;-51
2022/01/17 06:19:12;;;;;;;9.27;6.67;;;0.30;99.90;;;;;;5043166;28;20971;-51
2022/01/17 06:21:39;;;;;;;17.10;13.73;;;0.40;99.90;;;;;;5045926;28;20495;-51
2022/01/17 06:24:09;;;;;;;7.80;7.10;;;0.40;99.90;;;;;;5048767;28;20976;-50
2022/01/17 06:26:37;;;;;;;8.17;6.93;;;0.50;99.90;;;;;;5050708;28;20471;-51
2022/01/17 06:29:05;;;;;;;398.13;127.77;;;0.50;99.90;;;;;;5062320;28;20479;-51
2022/01/17 06:31:32;;;;;;;11.03;8.43;;;0.50;99.90;;;;;;5050364;28;20481;-52
2022/01/17 06:34:01;;;;;;;13.17;8.90;;;0.40;99.90;;;;;;5057393;28;20472;-53
2022/01/17 06:36:28;;;;;;;6.73;6.07;;;0.50;99.90;;;;;;5059869;28;20481;-50
2022/01/17 06:38:55;;;;;;;12.10;7.80;;;0.50;99.90;;;;;;5053806;28;20467;-53
2022/01/17 06:41:23;;;;;;;7.97;6.10;;;0.50;99.90;;;;;;5052851;28;20480;-50
2022/01/17 06:43:50;;;;;;;5.40;4.90;;;0.50;99.90;;;;;;5056263;28;20476;-51
2022/01/17 06:46:18;;;;;;;8.00;6.33;;;0.50;99.90;;;;;;5056447;28;20475;-52
2022/01/17 06:48:46;;;;;;;6.77;6.10;;;0.50;99.90;;;;;;5047386;28;20932;-51
2022/01/17 06:51:15;;;;;;;6.13;5.53;;;0.50;99.90;;;;;;5048014;28;20554;-53
2022/01/17 06:53:42;;;;;;;84.43;42.27;;;0.50;99.90;;;;;;5042051;28;20445;-50
2022/01/17 06:56:10;;;;;;;34.50;20.50;;;0.60;99.90;;;;;;5054838;28;20486;-52
2022/01/17 06:58:37;;;;;;;6.23;5.33;;;0.50;99.90;;;;;;5083686;22;20501;-83
2022/01/17 07:01:04;;;;;;;27.40;13.70;;;0.50;99.90;;;;;;5058762;28;20448;-84
2022/01/17 07:03:32;;;;;;;22.50;15.97;;;0.60;99.90;;;;;;5076448;23;21087;-54
2022/01/17 07:05:59;;;;;;;19.10;15.50;;;0.70;99.90;;;;;;5055070;28;21003;-54
2022/01/17 07:08:28;;;;;;;48.63;26.70;;;0.70;99.90;;;;;;5059019;28;21036;-53
2022/01/17 07:10:55;;;;;;;110.23;71.97;;;0.70;99.90;;;;;;5060997;28;20479;-55
2022/01/17 07:13:22;;;;;;;34.63;27.20;;;0.70;99.90;;;;;;5048392;28;20488;-55
2022/01/17 07:15:49;;;;;;;17.60;14.00;;;0.60;99.90;;;;;;5056545;28;20490;-54
2022/01/17 07:18:16;;;;;;;11.97;9.50;;;0.70;99.90;;;;;;5056034;28;20503;-55
2022/01/17 07:20:43;;;;;;;8.40;7.60;;;0.60;99.90;;;;;;5048779;28;20485;-55
2022/01/17 07:23:10;;;;;;;7.60;6.90;;;0.70;99.90;;;;;;5052136;28;20485;-55
2022/01/17 07:25:39;;;;;;;8.43;6.23;;;0.80;99.90;;;;;;5062591;28;20468;-54
2022/01/17 07:28:07;;;;;;;6.37;5.73;;;0.50;99.90;;;;;;5051501;28;20466;-54
2022/01/17 07:30:35;;;;;;;18.13;11.67;;;0.40;99.90;;;;;;5047074;28;20453;-55
2022/01/17 07:33:02;;;;;;;7.63;6.93;;;0.30;99.90;;;;;;5064815;28;20493;-55
2022/01/17 07:35:30;;;;;;;8.67;5.70;;;0.30;99.90;;;;;;5058360;28;20856;-55
2022/01/17 07:37:57;;;;;;;6.87;6.17;;;0.50;99.90;;;;;;5051772;28;20491;-58
2022/01/17 07:40:24;;;;;;;11.83;7.77;;;0.60;99.90;;;;;;5059730;28;20539;-55
2022/01/17 07:42:52;;;;;;;7.80;7.00;;;0.70;99.90;;;;;;5049925;28;20568;-55
2022/01/17 07:45:20;;;;;;;5.43;4.60;;;0.80;99.90;;;;;;5054423;28;20440;-55
2022/01/17 07:48:08;;;;;;;6.17;5.53;;;0.60;99.90;;;;;;5052836;28;20479;-55
2022/01/17 07:50:35;;;;;;;5.90;5.33;;;0.70;99.90;;;;;;5059028;28;20447;-53
2022/01/17 07:53:02;;;;;;;7.90;7.10;;;0.80;99.90;;;;;;5065584;28;20941;-53
2022/01/17 07:55:29;;;;;;;8.80;7.90;;;0.90;99.90;;;;;;5043934;28;20512;-54
2022/01/17 07:57:58;;;;;;;10.20;7.47;;;1.00;99.90;;;;;;5058521;28;20978;-54
2022/01/17 08:00:25;;;;;;;7.53;6.83;;;0.90;99.90;;;;;;5067605;28;20998;-54
2022/01/17 08:02:55;;;;;;;13.07;8.90;;;1.00;99.90;;;;;;5052746;28;20452;-54
2022/01/17 08:05:23;;;;;;;12.63;8.80;;;0.90;99.90;;;;;;5053660;28;20537;-54
2022/01/17 08:07:50;;;;;;;11.67;9.70;;;0.70;99.90;;;;;;5066201;28;20468;-54
2022/01/17 08:10:17;;;;;;;9.70;8.47;;;0.70;99.90;;;;;;5053252;28;20525;-54
2022/01/17 08:12:47;;;;;;;12.00;9.60;;;0.80;99.90;;;;;;5053679;28;20969;-54
2022/01/17 08:15:16;;;;;;;14.03;9.80;;;0.80;99.90;;;;;;5060858;28;20445;-54
2022/01/17 08:17:45;;;;;;;9.40;8.50;;;0.90;99.90;;;;;;5055295;28;20465;-54
2022/01/17 08:20:12;;;;;;;8.63;7.23;;;0.90;99.90;;;;;;5041714;28;20470;-54
2022/01/17 08:22:39;;;;;;;8.13;7.10;;;0.90;99.90;;;;;;5059072;28;20521;-54
2022/01/17 08:25:07;;;;;;;8.03;7.17;;;1.00;99.90;;;;;;5055811;28;20449;-54
2022/01/17 08:27:34;;;;;;;7.60;6.33;;;1.10;99.90;;;;;;5063210;28;20511;-54
2022/01/17 08:30:01;;;;;;;10.73;8.13;;;1.20;99.90;;;;;;5065032;28;20511;-55
2022/01/17 08:32:31;;;;;;;10.13;9.13;;;1.20;99.90;;;;;;5053190;28;20458;-54
2022/01/17 08:34:58;;;;;;;7.33;6.63;;;1.20;99.90;;;;;;5062956;28;21022;-54
2022/01/17 08:37:26;;;;;;;4.87;4.37;;;1.10;99.90;;;;;;5069460;28;20495;-54
2022/01/17 08:39:54;;;;;;;6.70;4.63;;;1.10;99.90;;;;;;5052641;28;20443;-54
2022/01/17 08:42:21;;;;;;;6.50;5.20;;;1.10;99.90;;;;;;5055727;28;20476;-55
2022/01/17 08:44:51;;;;;;;5.37;4.43;;;1.20;99.90;;;;;;5062178;28;20503;-54
2022/01/17 08:47:19;;;;;;;5.00;4.50;;;1.20;99.90;;;;;;5057029;28;21061;-54
2022/01/17 08:49:48;;;;;;;4.03;3.73;;;1.30;99.90;;;;;;5054893;28;20519;-61
2022/01/17 08:52:16;;;;;;;5.43;4.53;;;1.30;99.90;;;;;;5065168;28;20458;-54
2022/01/17 08:54:43;;;;;;;5.13;4.63;;;1.40;99.90;;;;;;5061231;28;20437;-54
2022/01/17 08:57:10;;;;;;;14.27;10.07;;;1.40;99.90;;;;;;5055837;28;20885;-54
2022/01/17 08:59:37;;;;;;;13.53;10.47;;;1.40;99.90;;;;;;5060394;28;20462;-53
2022/01/17 09:02:05;;;;;;;14.60;12.33;;;1.50;99.90;;;;;;5065410;28;20494;-54
2022/01/17 09:04:32;;;;;;;12.60;10.80;;;1.20;99.90;;;;;;5058885;28;20546;-54
2022/01/17 09:07:00;;;;;;;15.60;10.13;;;1.20;99.90;;;;;;5056496;28;20504;-54
2022/01/17 09:09:27;;;;;;;12.33;10.30;;;0.90;99.90;;;;;;5060285;28;20505;-54
2022/01/17 09:11:54;;;;;;;7.83;6.50;;;0.80;99.90;;;;;;5060167;28;20464;-55
2022/01/17 09:14:21;;;;;;;5.60;5.10;;;0.90;99.90;;;;;;5046901;28;20450;-54
2022/01/17 09:16:47;;;;;;;6.40;5.10;;;0.90;99.90;;;;;;5050921;28;20981;-53
2022/01/17 09:19:14;;;;;;;6.77;5.93;;;1.10;99.90;;;;;;5059640;28;20477;-53
2022/01/17 09:21:42;;;;;;;8.83;7.93;;;1.20;99.90;;;;;;5049613;28;20480;-53
2022/01/17 09:24:10;;;;;;;12.00;9.23;;;1.30;99.90;;;;;;5060226;28;20990;-54
2022/01/17 09:26:37;;;;;;;14.93;9.77;;;1.30;99.90;;;;;;5060130;28;20998;-54
2022/01/17 09:29:04;;;;;;;13.87;11.23;;;1.40;99.90;;;;;;5053947;28;20522;-54
2022/01/17 09:31:31;;;;;;;15.00;10.60;;;1.40;99.90;;;;;;5055960;28;20441;-54
2022/01/17 09:33:58;;;;;;;13.13;11.20;;;1.50;99.90;;;;;;5068044;28;20480;-54
2022/01/17 09:36:28;;;;;;;12.37;11.07;;;1.50;99.90;;;;;;5055788;28;20444;-54
2022/01/17 09:38:55;;;;;;;15.23;11.27;;;1.50;99.90;;;;;;5054944;28;20489;-54
2022/01/17 09:41:24;;;;;;;13.77;11.60;;;1.20;99.90;;;;;;5061052;28;20485;-53
2022/01/17 09:43:51;;;;;;;14.77;13.30;;;1.30;99.90;;;;;;5047847;28;20442;-54
2022/01/17 09:46:21;;;;;;;18.67;15.53;;;1.30;99.90;;;;;;5049478;28;20453;-54
2022/01/17 09:48:49;;;;;;;10.43;9.40;;;1.40;99.90;;;;;;5049635;28;20492;-53
2022/01/17 09:51:20;;;;;;;12.47;8.67;;;1.40;99.90;;;;;;5060795;28;20544;-52
2022/01/17 09:53:51;;;;;;;11.77;9.80;;;1.40;99.90;;;;;;5052845;28;20815;-52
2022/01/17 09:56:21;;;;;;;13.00;9.60;;;1.60;99.90;;;;;;5053180;28;20973;-54
2022/01/17 09:58:51;;;;;;;13.07;11.77;;;1.60;99.90;;;;;;5062732;28;20492;-60
2022/01/17 10:01:18;;;;;;;20.33;18.10;;;1.70;99.90;;;;;;5066997;28;20533;-54
2022/01/17 10:03:46;;;;;;;31.70;26.03;;;1.60;99.90;;;;;;5052294;28;20518;-54
2022/01/17 10:06:14;;;;;;;8.60;7.80;;;1.80;99.90;;;;;;5059851;28;20478;-54
2022/01/17 10:08:40;;;;;;;8.90;6.43;;;1.70;99.90;;;;;;5068008;28;20492;-55
2022/01/17 10:11:14;;;;;;;8.50;7.70;;;1.70;99.90;;;;;;5045326;28;20505;-55
2022/01/17 10:13:45;;;;;;;8.37;6.13;;;1.80;99.90;;;;;;5046564;28;21074;-60
2022/01/17 10:16:15;;;;;;;10.10;8.50;;;2.10;99.90;;;;;;5044824;28;20483;-54
2022/01/17 10:18:45;;;;;;;11.73;10.00;;;2.40;99.90;;;;;;5046882;28;20466;-54
2022/01/17 10:21:18;;;;;;;15.17;11.50;;;2.50;99.90;;;;;;5046343;28;20446;-54
2022/01/17 10:35:20;;;;;;;12.23;10.30;;;3.20;99.90;;;;;;5050306;28;20431;-54
2022/01/17 10:38:03;;;;;;;16.03;14.30;;;2.90;99.90;;;;;;5042378;28;20465;-55
2022/01/17 10:40:32;;;;;;;12.03;10.40;;;2.60;99.90;;;;;;5055928;28;20567;-54
2022/01/17 10:43:01;;;;;;;12.43;10.60;;;2.40;99.90;;;;;;5045844;28;20476;-53
2022/01/17 10:45:33;;;;;;;14.80;11.83;;;2.30;99.90;;;;;;5047764;28;20477;-53
2022/01/17 10:48:03;;;;;;;13.23;11.87;;;2.50;99.90;;;;;;5057696;28;20469;-52
2022/01/17 10:50:33;;;;;;;14.73;10.57;;;2.60;99.90;;;;;;5061221;28;20567;-53
2022/01/17 10:53:03;;;;;;;9.70;8.77;;;2.50;99.90;;;;;;5045171;28;20450;-61
2022/01/17 10:55:31;;;;;;;8.20;7.40;;;2.60;99.90;;;;;;5044435;28;20533;-54
2022/01/17 10:58:03;;;;;;;8.57;7.30;;;2.70;99.90;;;;;;5050273;28;20492;-54
2022/01/17 11:00:32;;;;;;;11.23;8.20;;;2.70;99.90;;;;;;5047829;28;20520;-55
2022/01/17 11:03:03;;;;;;;9.17;8.40;;;2.80;99.90;;;;;;5045215;28;20512;-55
2022/01/17 11:05:32;;;;;;;10.40;9.17;;;2.50;99.90;;;;;;5048034;28;20524;-55
2022/01/17 11:08:01;;;;;;;15.17;11.93;;;2.50;99.90;;;;;;5061504;28;20848;-55
2022/01/17 11:10:30;;;;;;;13.47;12.17;;;2.50;99.90;;;;;;5046426;28;20843;-54
2022/01/17 11:13:00;;;;;;;13.33;11.13;;;2.60;99.90;;;;;;5048009;28;20849;-54
2022/01/17 11:15:27;;;;;;;10.33;8.53;;;2.60;99.90;;;;;;5062444;28;21494;-54
2022/01/17 11:17:56;;;;;;;10.80;9.27;;;2.70;99.90;;;;;;5042835;28;20994;-57
2022/01/17 11:20:26;;;;;;;16.60;9.90;;;2.70;99.90;;;;;;5046270;28;20445;-54
2022/01/17 11:22:56;;;;;;;12.57;10.30;;;2.50;99.90;;;;;;5039205;28;20489;-54
2022/01/17 11:25:25;;;;;;;13.33;10.87;;;2.50;99.90;;;;;;5052555;28;20523;-54
2022/01/17 11:27:52;;;;;;;11.83;10.60;;;2.60;99.90;;;;;;5042391;28;20517;-59
2022/01/17 11:30:20;;;;;;;11.37;10.20;;;2.70;99.90;;;;;;5047649;28;20608;-54
2022/01/17 11:32:48;;;;;;;13.47;10.43;;;2.80;99.90;;;;;;5067858;28;20508;-54
2022/01/17 11:35:17;;;;;;;13.20;11.87;;;2.90;99.90;;;;;;5044158;28;20475;-54
2022/01/17 11:37:48;;;;;;;13.00;11.70;;;2.90;99.90;;;;;;5047786;28;20458;-55
2022/01/17 11:40:20;;;;;;;10.83;9.23;;;3.00;99.90;;;;;;5043136;28;20462;-53
2022/01/17 11:42:50;;;;;;;11.23;8.03;;;3.00;99.90;;;;;;5042214;28;20463;-53
2022/01/17 11:45:47;;;;;;;11.87;8.43;;;3.10;99.90;;;;;;5045546;28;20446;-54
2022/01/17 11:48:23;;;;;;;11.13;9.10;;;3.10;99.90;;;;;;5044398;28;20544;-54
2022/01/17 11:50:52;;;;;;;9.50;7.70;;;3.10;99.90;;;;;;5045648;28;20553;-54
2022/01/17 11:53:51;;;;;;;9.20;8.37;;;3.20;99.90;;;;;;5065422;28;20452;-54
2022/01/17 11:56:38;;;;;;;8.07;7.33;;;3.20;99.90;;;;;;5052248;28;20509;-58
2022/01/17 11:59:28;;;;;;;7.67;6.83;;;3.30;99.90;;;;;;5052974;28;20451;-54
2022/01/17 12:02:27;;;;;;;6.73;6.13;;;3.30;99.90;;;;;;5053742;28;20446;-54
2022/01/17 12:05:33;;;;;;;7.70;6.90;;;3.40;99.90;;;;;;5010299;28;20447;-54
2022/01/17 12:08:00;;;;;;;15.00;7.70;;;3.40;99.90;;;;;;5050128;28;20475;-54
2022/01/17 12:10:38;;;;;;;7.83;7.07;;;3.40;99.90;;;;;;5056033;28;20476;-54
2022/01/17 12:13:44;;;;;;;9.53;6.87;;;3.50;99.90;;;;;;5052576;28;20469;-54
2022/01/17 12:16:18;;;;;;;8.03;7.23;;;3.50;99.90;;;;;;5050561;28;20459;-54
2022/01/17 12:18:48;;;;;;;8.53;7.73;;;3.50;99.90;;;;;;5055875;28;20465;-54
2022/01/17 12:21:28;;;;;;;9.23;8.23;;;3.50;99.90;;;;;;5065968;28;20490;-55
2022/01/17 12:24:32;;;;;;;7.43;6.77;;;3.60;99.90;;;;;;5052862;28;20440;-54
2022/01/17 12:27:09;;;;;;;6.93;6.20;;;3.60;99.90;;;;;;5056127;28;20460;-54
2022/01/17 12:29:38;;;;;;;6.60;5.87;;;3.70;99.90;;;;;;5062079;28;20473;-53
2022/01/17 12:32:07;;;;;;;6.27;5.43;;;3.80;99.90;;;;;;5066312;28;20925;-54
2022/01/17 12:34:43;;;;;;;9.23;4.70;;;3.80;99.90;;;;;;5051816;28;20477;-54
2022/01/17 12:37:33;;;;;;;3.47;3.17;;;3.80;99.90;;;;;;5046665;28;20504;-54
2022/01/17 12:40:13;;;;;;;5.20;4.23;;;3.80;99.90;;;;;;5044510;28;20466;-55
2022/01/17 12:42:53;;;;;;;12.20;8.60;;;3.80;99.90;;;;;;5064222;28;20835;-53
2022/01/17 12:45:22;;;;;;;14.27;11.80;;;3.80;99.90;;;;;;5059143;28;20950;-54
2022/01/17 12:47:50;;;;;;;16.13;10.70;;;3.80;99.90;;;;;;5054547;28;20479;-54
2022/01/17 12:50:20;;;;;;;25.53;14.77;;;3.90;99.90;;;;;;5058163;28;21087;-54
2022/01/17 12:52:47;;;;;;;4.50;3.47;;;3.90;99.90;;;;;;5064450;28;20447;-54
2022/01/17 12:55:14;;;;;;;3.13;2.83;;;3.90;99.90;;;;;;5057293;28;20472;-54
2022/01/17 12:57:44;;;;;;;5.70;3.70;;;3.90;99.90;;;;;;5060313;28;20759;-54
2022/01/17 13:00:18;;;;;;;4.07;3.67;;;4.00;99.90;;;;;;5065581;28;20430;-54
2022/01/17 13:02:47;;;;;;;5.23;3.70;;;4.10;99.90;;;;;;5082599;22;20226;-82
2022/01/17 13:05:14;;;;;;;4.97;4.47;;;4.10;99.90;;;;;;5062394;28;20517;-82
2022/01/17 13:07:42;;;;;;;3.63;3.33;;;4.10;99.90;;;;;;5056416;28;20529;-82
2022/01/17 13:10:11;;;;;;;6.70;3.87;;;4.10;99.90;;;;;;5056869;28;20482;-82
2022/01/17 13:12:41;;;;;;;5.57;3.87;;;4.10;99.90;;;;;;5057007;28;20519;-83
2022/01/17 13:15:09;;;;;;;5.90;3.93;;;4.20;99.90;;;;;;5056871;28;20447;-82
2022/01/17 13:17:38;;;;;;;9.53;5.33;;;4.20;99.90;;;;;;5074727;23;21011;-48
2022/01/17 13:20:07;;;;;;;5.87;5.27;;;4.20;99.90;;;;;;5055790;28;20958;-49
2022/01/17 13:22:40;;;;;;;5.90;4.17;;;4.20;99.90;;;;;;5057104;28;20462;-50
2022/01/17 13:25:09;;;;;;;4.10;3.70;;;4.20;99.90;;;;;;5059260;28;20444;-51